AirNav   TITAN Aviation Fuels
 
 1462 users online  

N88 Kecks Airport
Julian, North Carolina, USA

GOING TO JULIAN?


FAA INFORMATION EFFECTIVE 20 MAY 2021

Location

FAA Identifier: N88
Lat/Long: 35-55-35.4900N 079-37-39.0900W
35-55.591500N 079-37.651500W
35.9265250,-79.6275250
(estimated)
Elevation: 724 ft. / 220.7 m (surveyed)
Variation: 06W (1985)
From city: 2 miles NE of JULIAN, NC
Time zone: UTC -4 (UTC -5 during Standard Time)
Zip code: 27283

Airport Operations

Airport use: Open to the public
Activation date: 07/1953
Control tower: no
ARTCC: ATLANTA CENTER
FSS: RALEIGH FLIGHT SERVICE STATION
NOTAMs facility: RDU (NOTAM-D service available)
Attendance: UNATNDD
Wind indicator: yes
Segmented circle: no

Airport Communications

CTAF: 122.9
WX ASOS at BUY (11 nm NE): 135.325 (336-570-9813)
WX AWOS-3 at SCR (15 nm SE): 125.775 (919-663-1252)
WX ASOS at GSO (18 nm NW): 128.55 (336-393-0168)

Nearby radio navigation aids

VOR radial/distance  VOR name  Freq  Var
LIBr357/6.9LIBERTY VORTAC113.0003W
GSOr116/18.4GREENSBORO VORTAC116.2003W

 
NDB name  Hdg/Dist  Freq  Var  ID
ALAMM222/3.736108WHB .... -...
SLAMMER174/28.142307WSIF ... .. ..-.
PERSON244/32.922008WHUR .... ..- .-.

Airport Services

Parking: tiedowns
Airframe service: NONE
Powerplant service: NONE
Bottled oxygen: NONE
Bulk oxygen: NONE

Runway Information

Runway 5/23

Dimensions: 1400 x 75 ft. / 427 x 23 m
Surface: turf, in good condition
RUNWAY 5  RUNWAY 23
Traffic pattern: leftleft
Obstructions: 40 ft. trees, 647 ft. from runway, 7 ft. left of centerline, 16:1 slope to clear36 ft. pline, marked, 776 ft. from runway, 21:1 slope to clear
PLINE 780 FT FM THR.

Airport Ownership and Management from official FAA records

Ownership: Privately-owned
Owner: MARK KECK
2379 N.C. 62E
JULIAN, NC 27283
Phone 336-451-1540
Manager: MARK KECK
2379 N.C. 62E
JULIAN, NC 27283
Phone 336-451-1540

Airport Operational Statistics

Aircraft operations: avg 27/month *
62% transient general aviation
38% local general aviation
* for 12-month period ending 02 April 2021

Additional Remarks

BLDGS ON NW EDGE OF RY.
AGRICULTURAL EQUIPMENT OCNLY ON RY.
4' LIVESTOCK FENCE BELOW RWY GRADE ACROSS END OF EACH RWY
ARPT IN TFC PAT OF CAUSEY ARPT 2A5 (1 MI NW) CTAF: 122.8.
FOR CD CTC GREENSBORO APCH AT 336-333-5119.
RWY 5 HAS 4FT DROP OFF 10FT FM END OF RWY BOTH SIDES OF CNTRLN

Instrument Procedures

There are no published instrument procedures at N88.

Some nearby airports with instrument procedures:

2A5 - Causey Airport (1 nm SE)
KBUY - Burlington-Alamance Regional Airport (11 nm NE)
KSCR - Siler City Municipal Airport (15 nm SE)
KGSO - Piedmont Triad International Airport (18 nm NW)
KHBI - Asheboro Regional Airport (21 nm SW)
 
Loc | Ops | Rwys | IFR | FBO | Links
Com | Nav | Svcs | Stats | Notes
Area around N88 (Kecks Airport)
 
Road maps at: MapQuest Bing Google
 
Aerial photo
No photo
 
Sectional chart

 
Airport distance calculator
Flying to Kecks Airport? Find the distance to fly.

From to N88

Sunrise and sunset
Times for 14-Jun-2021
 Local
(UTC-4)
 Zulu
(UTC)
Morning civil twilight05:3209:32
Sunrise06:0210:02
Sunset20:3500:35
Evening civil twilight21:0501:05

Current date and time
Zulu (UTC)  14-Jun-2021 14:19:58
Local (UTC-4)  14-Jun-2021 10:19:58
 
METAR
KBUY 
11nm NE 
141354Z AUTO 24005KT 10SM CLR 26/19 A2990 RMK AO2 SLP118 T02610189
KSCR 
15nm SE 
141355Z AUTO 21006KT 10SM CLR 26/20 A2991 RMK AO2 T02590203
KGSO 
19nm NW 
141354Z 26006KT 10SM FEW025 FEW050 FEW090 OVC250 24/19 A2991 RMK AO2 SLP119 T02390194
KHBI 
21nm SW 
141355Z AUTO 19004KT CLR 25/20 A2994 RMK AO2 T02480204
TAF
KGSO 
19nm NW 
141120Z 1412/1512 VRB02KT P6SM FEW035 BKN250 FM141500 28007KT P6SM SCT050 BKN250 FM141800 27007KT P6SM BKN060 FM150100 VRB03KT P6SM SCT070 BKN150
NOTAMs
Click for the latest NOTAMs
NOTAMs are issued by the DoD/FAA and will open in a separate window not controlled by AirNav.

 

 
 

Would you like to see your business listed on this page?

 If your business provides an interesting product or service to pilots, flight crews, aircraft, or users of the Kecks Airport, you should consider listing it here.  To start the listing process, click on the button below
 
Add a business
 

Other Pages about Kecks Airport

Update a link
 
Copyright © AirNav, LLC. All rights reserved. Privacy Policy  Contact